sensor_id;sensor_type;location;lat;lon;timestamp;P1;durP1;ratioP1;P2;durP2;ratioP2
35150;SDS011;55720;51.972;4.624;2023-05-08T00:01:47;91.00;;;46.15;;
35150;SDS011;55720;51.972;4.624;2023-05-08T00:04:12;95.32;;;48.17;;
35150;SDS011;55720;51.972;4.624;2023-05-08T00:06:37;108.18;;;48.65;;
35150;SDS011;55720;51.972;4.624;2023-05-08T00:09:03;94.80;;;46.72;;
35150;SDS011;55720;51.972;4.624;2023-05-08T00:11:28;89.20;;;46.20;;
35150;SDS011;55720;51.972;4.624;2023-05-08T00:13:54;85.90;;;43.22;;
35150;SDS011;55720;51.972;4.624;2023-05-08T00:16:19;83.63;;;44.00;;
35150;SDS011;55720;51.972;4.624;2023-05-08T00:18:44;85.53;;;42.03;;
35150;SDS011;55720;51.972;4.624;2023-05-08T00:21:10;76.72;;;42.50;;
35150;SDS011;55720;51.972;4.624;2023-05-08T00:23:36;79.78;;;41.33;;
35150;SDS011;55720;51.972;4.624;2023-05-08T00:26:01;77.82;;;41.20;;
35150;SDS011;55720;51.972;4.624;2023-05-08T00:28:26;76.88;;;39.90;;
35150;SDS011;55720;51.972;4.624;2023-05-08T00:30:52;87.47;;;43.15;;
35150;SDS011;55720;51.972;4.624;2023-05-08T00:33:17;73.32;;;41.20;;
35150;SDS011;55720;51.972;4.624;2023-05-08T00:35:43;82.85;;;41.35;;
35150;SDS011;55720;51.972;4.624;2023-05-08T00:38:08;79.90;;;40.83;;
35150;SDS011;55720;51.972;4.624;2023-05-08T00:40:34;82.40;;;41.85;;
35150;SDS011;55720;51.972;4.624;2023-05-08T00:43:00;86.18;;;43.35;;
35150;SDS011;55720;51.972;4.624;2023-05-08T00:45:31;87.82;;;42.60;;
35150;SDS011;55720;51.972;4.624;2023-05-08T00:48:00;83.90;;;42.55;;
35150;SDS011;55720;51.972;4.624;2023-05-08T00:50:25;91.45;;;43.95;;
35150;SDS011;55720;51.972;4.624;2023-05-08T00:52:51;94.97;;;44.50;;
35150;SDS011;55720;51.972;4.624;2023-05-08T00:55:17;91.78;;;43.80;;
35150;SDS011;55720;51.972;4.624;2023-05-08T00:57:43;84.63;;;43.55;;
35150;SDS011;55720;51.972;4.624;2023-05-08T01:00:11;91.15;;;44.92;;
35150;SDS011;55720;51.972;4.624;2023-05-08T01:02:37;97.20;;;46.25;;
35150;SDS011;55720;51.972;4.624;2023-05-08T01:05:04;83.72;;;42.20;;
35150;SDS011;55720;51.972;4.624;2023-05-08T01:07:30;81.53;;;41.05;;
35150;SDS011;55720;51.972;4.624;2023-05-08T01:09:56;78.75;;;41.50;;
35150;SDS011;55720;51.972;4.624;2023-05-08T01:12:28;89.75;;;43.35;;
35150;SDS011;55720;51.972;4.624;2023-05-08T01:35:08;92.63;;;44.10;;
35150;SDS011;55720;51.972;4.624;2023-05-08T01:40:24;85.47;;;41.42;;
35150;SDS011;55720;51.972;4.624;2023-05-08T01:43:15;104.20;;;47.22;;
35150;SDS011;55720;51.972;4.624;2023-05-08T01:45:47;107.63;;;49.05;;
35150;SDS011;55720;51.972;4.624;2023-05-08T01:48:16;108.88;;;47.97;;
35150;SDS011;55720;51.972;4.624;2023-05-08T01:50:48;114.18;;;49.67;;
35150;SDS011;55720;51.972;4.624;2023-05-08T01:53:23;103.40;;;48.05;;
35150;SDS011;55720;51.972;4.624;2023-05-08T01:55:53;114.80;;;51.10;;
35150;SDS011;55720;51.972;4.624;2023-05-08T01:58:22;86.70;;;37.80;;
35150;SDS011;55720;51.972;4.624;2023-05-08T02:00:49;123.75;;;51.92;;
35150;SDS011;55720;51.972;4.624;2023-05-08T02:03:15;117.70;;;53.60;;
35150;SDS011;55720;51.972;4.624;2023-05-08T02:05:42;146.00;;;56.13;;
35150;SDS011;55720;51.972;4.624;2023-05-08T02:08:10;139.68;;;56.45;;
35150;SDS011;55720;51.972;4.624;2023-05-08T02:10:38;144.32;;;60.28;;
35150;SDS011;55720;51.972;4.624;2023-05-08T02:13:05;158.23;;;61.17;;
35150;SDS011;55720;51.972;4.624;2023-05-08T02:15:34;151.05;;;61.13;;
35150;SDS011;55720;51.972;4.624;2023-05-08T02:18:01;157.80;;;62.40;;
35150;SDS011;55720;51.972;4.624;2023-05-08T02:20:30;152.95;;;61.03;;
35150;SDS011;55720;51.972;4.624;2023-05-08T02:22:56;158.00;;;62.97;;
35150;SDS011;55720;51.972;4.624;2023-05-08T02:25:22;155.85;;;62.40;;
35150;SDS011;55720;51.972;4.624;2023-05-08T02:27:49;162.05;;;61.80;;
35150;SDS011;55720;51.972;4.624;2023-05-08T02:30:17;163.55;;;61.38;;
35150;SDS011;55720;51.972;4.624;2023-05-08T02:32:44;161.48;;;61.40;;
35150;SDS011;55720;51.972;4.624;2023-05-08T02:35:12;153.73;;;60.05;;
35150;SDS011;55720;51.972;4.624;2023-05-08T02:37:44;146.68;;;56.40;;
35150;SDS011;55720;51.972;4.624;2023-05-08T02:40:13;158.27;;;60.72;;
35150;SDS011;55720;51.972;4.624;2023-05-08T02:42:41;154.50;;;58.45;;
35150;SDS011;55720;51.972;4.624;2023-05-08T02:45:07;148.00;;;58.95;;
35150;SDS011;55720;51.972;4.624;2023-05-08T02:50:30;152.98;;;57.42;;
35150;SDS011;55720;51.972;4.624;2023-05-08T02:53:24;150.38;;;57.08;;
35150;SDS011;55720;51.972;4.624;2023-05-08T02:55:56;148.20;;;58.28;;
35150;SDS011;55720;51.972;4.624;2023-05-08T03:01:37;151.05;;;55.55;;
35150;SDS011;55720;51.972;4.624;2023-05-08T03:04:08;146.18;;;57.10;;
35150;SDS011;55720;51.972;4.624;2023-05-08T03:06:39;146.93;;;55.90;;
35150;SDS011;55720;51.972;4.624;2023-05-08T03:09:10;150.38;;;59.33;;
35150;SDS011;55720;51.972;4.624;2023-05-08T03:11:41;145.52;;;55.75;;
35150;SDS011;55720;51.972;4.624;2023-05-08T03:14:09;137.48;;;53.95;;
35150;SDS011;55720;51.972;4.624;2023-05-08T03:16:37;142.55;;;53.97;;
35150;SDS011;55720;51.972;4.624;2023-05-08T03:19:16;139.43;;;55.22;;
35150;SDS011;55720;51.972;4.624;2023-05-08T03:21:47;129.20;;;52.60;;
35150;SDS011;55720;51.972;4.624;2023-05-08T03:24:15;133.50;;;53.28;;
35150;SDS011;55720;51.972;4.624;2023-05-08T03:26:43;138.52;;;53.55;;
35150;SDS011;55720;51.972;4.624;2023-05-08T03:29:10;140.25;;;55.00;;
35150;SDS011;55720;51.972;4.624;2023-05-08T03:31:37;149.75;;;56.42;;
35150;SDS011;55720;51.972;4.624;2023-05-08T03:34:04;144.20;;;56.50;;
35150;SDS011;55720;51.972;4.624;2023-05-08T03:36:32;149.63;;;56.97;;
35150;SDS011;55720;51.972;4.624;2023-05-08T03:38:58;159.90;;;55.90;;
35150;SDS011;55720;51.972;4.624;2023-05-08T03:41:24;158.05;;;57.67;;
35150;SDS011;55720;51.972;4.624;2023-05-08T03:43:50;142.32;;;54.92;;
35150;SDS011;55720;51.972;4.624;2023-05-08T03:46:17;140.65;;;53.03;;
35150;SDS011;55720;51.972;4.624;2023-05-08T03:48:44;139.95;;;53.90;;
35150;SDS011;55720;51.972;4.624;2023-05-08T03:51:11;140.10;;;53.97;;
35150;SDS011;55720;51.972;4.624;2023-05-08T03:53:37;154.45;;;56.03;;
35150;SDS011;55720;51.972;4.624;2023-05-08T03:56:02;146.05;;;55.30;;
35150;SDS011;55720;51.972;4.624;2023-05-08T03:58:40;139.15;;;54.33;;
35150;SDS011;55720;51.972;4.624;2023-05-08T04:01:22;144.02;;;54.88;;
35150;SDS011;55720;51.972;4.624;2023-05-08T04:04:15;148.18;;;53.95;;
35150;SDS011;55720;51.972;4.624;2023-05-08T04:09:12;135.50;;;50.75;;
35150;SDS011;55720;51.972;4.624;2023-05-08T04:14:18;146.05;;;52.42;;
35150;SDS011;55720;51.972;4.624;2023-05-08T04:16:47;140.10;;;51.22;;
35150;SDS011;55720;51.972;4.624;2023-05-08T04:19:26;129.35;;;50.22;;
35150;SDS011;55720;51.972;4.624;2023-05-08T04:21:56;139.80;;;52.35;;
35150;SDS011;55720;51.972;4.624;2023-05-08T04:24:26;128.75;;;49.72;;
35150;SDS011;55720;51.972;4.624;2023-05-08T04:26:54;140.80;;;51.28;;
35150;SDS011;55720;51.972;4.624;2023-05-08T04:29:21;135.63;;;51.40;;
35150;SDS011;55720;51.972;4.624;2023-05-08T04:31:47;151.20;;;51.55;;
35150;SDS011;55720;51.972;4.624;2023-05-08T04:34:14;158.38;;;51.38;;
35150;SDS011;55720;51.972;4.624;2023-05-08T04:36:40;176.90;;;53.78;;
35150;SDS011;55720;51.972;4.624;2023-05-08T04:39:06;219.35;;;49.92;;
35150;SDS011;55720;51.972;4.624;2023-05-08T04:41:32;193.23;;;48.42;;
35150;SDS011;55720;51.972;4.624;2023-05-08T04:43:57;260.95;;;48.22;;
35150;SDS011;55720;51.972;4.624;2023-05-08T04:46:23;163.20;;;48.10;;
35150;SDS011;55720;51.972;4.624;2023-05-08T04:48:49;247.02;;;47.47;;
35150;SDS011;55720;51.972;4.624;2023-05-08T04:51:15;194.85;;;47.55;;
35150;SDS011;55720;51.972;4.624;2023-05-08T04:53:40;220.73;;;44.92;;
35150;SDS011;55720;51.972;4.624;2023-05-08T04:56:05;259.83;;;47.05;;
35150;SDS011;55720;51.972;4.624;2023-05-08T04:58:31;180.10;;;45.20;;
35150;SDS011;55720;51.972;4.624;2023-05-08T05:00:56;153.85;;;45.38;;
35150;SDS011;55720;51.972;4.624;2023-05-08T05:03:25;181.77;;;46.60;;
35150;SDS011;55720;51.972;4.624;2023-05-08T05:05:55;156.95;;;43.90;;
35150;SDS011;55720;51.972;4.624;2023-05-08T05:08:22;216.93;;;44.90;;
35150;SDS011;55720;51.972;4.624;2023-05-08T05:10:48;206.70;;;44.10;;
35150;SDS011;55720;51.972;4.624;2023-05-08T05:13:13;149.73;;;45.97;;
35150;SDS011;55720;51.972;4.624;2023-05-08T05:15:40;177.65;;;43.35;;
35150;SDS011;55720;51.972;4.624;2023-05-08T05:18:06;160.93;;;44.60;;
35150;SDS011;55720;51.972;4.624;2023-05-08T05:20:32;159.60;;;44.15;;
35150;SDS011;55720;51.972;4.624;2023-05-08T05:22:57;191.32;;;44.15;;
35150;SDS011;55720;51.972;4.624;2023-05-08T05:25:23;142.55;;;44.95;;
35150;SDS011;55720;51.972;4.624;2023-05-08T05:27:48;155.40;;;43.83;;
35150;SDS011;55720;51.972;4.624;2023-05-08T05:30:13;124.00;;;46.45;;
35150;SDS011;55720;51.972;4.624;2023-05-08T05:32:39;149.18;;;46.85;;
35150;SDS011;55720;51.972;4.624;2023-05-08T05:35:04;124.45;;;46.15;;
35150;SDS011;55720;51.972;4.624;2023-05-08T05:37:30;143.65;;;45.58;;
35150;SDS011;55720;51.972;4.624;2023-05-08T05:39:55;126.28;;;44.88;;
35150;SDS011;55720;51.972;4.624;2023-05-08T05:42:21;129.00;;;45.58;;
35150;SDS011;55720;51.972;4.624;2023-05-08T05:44:46;140.00;;;44.88;;
35150;SDS011;55720;51.972;4.624;2023-05-08T05:47:11;123.97;;;45.80;;
35150;SDS011;55720;51.972;4.624;2023-05-08T05:49:37;122.97;;;44.35;;
35150;SDS011;55720;51.972;4.624;2023-05-08T05:52:03;127.70;;;44.65;;
35150;SDS011;55720;51.972;4.624;2023-05-08T05:54:28;123.03;;;46.03;;
35150;SDS011;55720;51.972;4.624;2023-05-08T05:56:54;127.70;;;45.58;;
35150;SDS011;55720;51.972;4.624;2023-05-08T05:59:19;123.90;;;44.35;;
35150;SDS011;55720;51.972;4.624;2023-05-08T06:01:44;101.72;;;41.50;;
35150;SDS011;55720;51.972;4.624;2023-05-08T06:04:10;105.10;;;42.45;;
35150;SDS011;55720;51.972;4.624;2023-05-08T06:06:35;103.15;;;39.97;;
35150;SDS011;55720;51.972;4.624;2023-05-08T06:09:01;98.00;;;40.17;;
35150;SDS011;55720;51.972;4.624;2023-05-08T06:11:26;109.43;;;40.75;;
35150;SDS011;55720;51.972;4.624;2023-05-08T06:13:52;107.03;;;36.08;;
35150;SDS011;55720;51.972;4.624;2023-05-08T06:16:17;87.55;;;33.97;;
35150;SDS011;55720;51.972;4.624;2023-05-08T06:18:44;86.07;;;32.58;;
35150;SDS011;55720;51.972;4.624;2023-05-08T06:21:10;78.40;;;30.50;;
35150;SDS011;55720;51.972;4.624;2023-05-08T06:23:35;75.43;;;26.95;;
35150;SDS011;55720;51.972;4.624;2023-05-08T06:26:00;71.10;;;26.00;;
35150;SDS011;55720;51.972;4.624;2023-05-08T06:28:26;70.47;;;24.77;;
35150;SDS011;55720;51.972;4.624;2023-05-08T06:30:52;75.45;;;24.42;;
35150;SDS011;55720;51.972;4.624;2023-05-08T06:33:20;60.63;;;22.13;;
35150;SDS011;55720;51.972;4.624;2023-05-08T06:35:46;65.68;;;20.92;;
35150;SDS011;55720;51.972;4.624;2023-05-08T06:38:12;62.85;;;21.20;;
35150;SDS011;55720;51.972;4.624;2023-05-08T06:40:41;57.85;;;19.77;;
35150;SDS011;55720;51.972;4.624;2023-05-08T06:43:08;60.00;;;18.95;;
35150;SDS011;55720;51.972;4.624;2023-05-08T06:45:33;50.70;;;18.92;;
35150;SDS011;55720;51.972;4.624;2023-05-08T06:47:58;49.63;;;17.40;;
35150;SDS011;55720;51.972;4.624;2023-05-08T06:50:24;61.33;;;19.90;;
35150;SDS011;55720;51.972;4.624;2023-05-08T06:52:49;50.45;;;17.85;;
35150;SDS011;55720;51.972;4.624;2023-05-08T06:55:15;56.35;;;19.30;;
35150;SDS011;55720;51.972;4.624;2023-05-08T06:57:40;60.92;;;19.30;;
35150;SDS011;55720;51.972;4.624;2023-05-08T07:00:06;55.67;;;18.05;;
35150;SDS011;55720;51.972;4.624;2023-05-08T07:02:32;51.22;;;18.80;;
35150;SDS011;55720;51.972;4.624;2023-05-08T07:04:57;51.92;;;17.83;;
35150;SDS011;55720;51.972;4.624;2023-05-08T07:07:22;50.83;;;18.95;;
35150;SDS011;55720;51.972;4.624;2023-05-08T07:09:48;54.30;;;17.67;;
35150;SDS011;55720;51.972;4.624;2023-05-08T07:12:13;48.70;;;18.48;;
35150;SDS011;55720;51.972;4.624;2023-05-08T07:14:40;49.97;;;18.38;;
35150;SDS011;55720;51.972;4.624;2023-05-08T07:17:06;49.55;;;17.92;;
35150;SDS011;55720;51.972;4.624;2023-05-08T07:19:32;46.65;;;16.92;;
35150;SDS011;55720;51.972;4.624;2023-05-08T07:22:00;49.13;;;17.85;;
35150;SDS011;55720;51.972;4.624;2023-05-08T07:24:26;54.83;;;18.65;;
35150;SDS011;55720;51.972;4.624;2023-05-08T07:26:51;46.58;;;17.45;;
35150;SDS011;55720;51.972;4.624;2023-05-08T07:29:16;45.15;;;18.40;;
35150;SDS011;55720;51.972;4.624;2023-05-08T07:31:42;47.40;;;17.95;;
35150;SDS011;55720;51.972;4.624;2023-05-08T07:34:09;41.40;;;16.85;;
35150;SDS011;55720;51.972;4.624;2023-05-08T07:36:35;41.72;;;18.17;;
35150;SDS011;55720;51.972;4.624;2023-05-08T07:39:00;41.30;;;17.42;;
35150;SDS011;55720;51.972;4.624;2023-05-08T07:41:25;43.75;;;19.05;;
35150;SDS011;55720;51.972;4.624;2023-05-08T07:43:51;44.22;;;18.08;;
35150;SDS011;55720;51.972;4.624;2023-05-08T07:46:17;41.70;;;17.45;;
35150;SDS011;55720;51.972;4.624;2023-05-08T07:48:42;42.40;;;17.27;;
35150;SDS011;55720;51.972;4.624;2023-05-08T07:51:08;43.45;;;17.73;;
35150;SDS011;55720;51.972;4.624;2023-05-08T07:53:35;35.33;;;15.88;;
35150;SDS011;55720;51.972;4.624;2023-05-08T07:56:00;41.42;;;16.88;;
35150;SDS011;55720;51.972;4.624;2023-05-08T07:58:26;45.97;;;18.25;;
35150;SDS011;55720;51.972;4.624;2023-05-08T08:00:52;37.50;;;16.52;;
35150;SDS011;55720;51.972;4.624;2023-05-08T08:03:17;42.85;;;17.05;;
35150;SDS011;55720;51.972;4.624;2023-05-08T08:05:43;37.13;;;16.50;;
35150;SDS011;55720;51.972;4.624;2023-05-08T08:08:09;37.63;;;15.60;;
35150;SDS011;55720;51.972;4.624;2023-05-08T08:10:34;37.20;;;16.48;;
35150;SDS011;55720;51.972;4.624;2023-05-08T08:13:00;34.72;;;15.63;;
35150;SDS011;55720;51.972;4.624;2023-05-08T08:15:26;34.85;;;15.32;;
35150;SDS011;55720;51.972;4.624;2023-05-08T08:17:52;36.50;;;16.95;;
35150;SDS011;55720;51.972;4.624;2023-05-08T08:20:18;37.95;;;16.90;;
35150;SDS011;55720;51.972;4.624;2023-05-08T08:22:44;36.42;;;15.90;;
35150;SDS011;55720;51.972;4.624;2023-05-08T08:25:09;39.38;;;16.60;;
35150;SDS011;55720;51.972;4.624;2023-05-08T08:27:35;35.63;;;15.95;;
35150;SDS011;55720;51.972;4.624;2023-05-08T08:30:00;34.85;;;16.42;;
35150;SDS011;55720;51.972;4.624;2023-05-08T08:32:25;32.05;;;13.85;;
35150;SDS011;55720;51.972;4.624;2023-05-08T08:34:51;34.80;;;14.52;;
35150;SDS011;55720;51.972;4.624;2023-05-08T08:37:16;33.47;;;13.77;;
35150;SDS011;55720;51.972;4.624;2023-05-08T08:39:41;29.35;;;13.95;;
35150;SDS011;55720;51.972;4.624;2023-05-08T08:42:07;33.00;;;13.20;;
35150;SDS011;55720;51.972;4.624;2023-05-08T08:44:32;26.27;;;13.35;;
35150;SDS011;55720;51.972;4.624;2023-05-08T08:46:58;31.38;;;13.55;;
35150;SDS011;55720;51.972;4.624;2023-05-08T08:49:33;28.40;;;14.65;;
35150;SDS011;55720;51.972;4.624;2023-05-08T08:52:08;30.63;;;14.65;;
35150;SDS011;55720;51.972;4.624;2023-05-08T08:54:43;35.15;;;15.75;;
35150;SDS011;55720;51.972;4.624;2023-05-08T08:57:10;36.35;;;15.23;;
35150;SDS011;55720;51.972;4.624;2023-05-08T08:59:37;33.72;;;15.60;;
35150;SDS011;55720;51.972;4.624;2023-05-08T09:02:10;28.15;;;14.07;;
35150;SDS011;55720;51.972;4.624;2023-05-08T09:04:38;32.70;;;15.40;;
35150;SDS011;55720;51.972;4.624;2023-05-08T09:07:04;34.45;;;15.45;;
35150;SDS011;55720;51.972;4.624;2023-05-08T09:09:31;26.80;;;14.32;;
35150;SDS011;55720;51.972;4.624;2023-05-08T09:11:59;32.33;;;13.95;;
35150;SDS011;55720;51.972;4.624;2023-05-08T09:14:25;31.70;;;15.88;;
35150;SDS011;55720;51.972;4.624;2023-05-08T09:16:54;32.33;;;15.38;;
35150;SDS011;55720;51.972;4.624;2023-05-08T09:19:19;28.80;;;13.32;;
35150;SDS011;55720;51.972;4.624;2023-05-08T09:21:45;26.13;;;12.85;;
35150;SDS011;55720;51.972;4.624;2023-05-08T09:24:10;26.65;;;13.98;;
35150;SDS011;55720;51.972;4.624;2023-05-08T09:26:37;33.40;;;14.35;;
35150;SDS011;55720;51.972;4.624;2023-05-08T09:31:40;31.88;;;14.95;;
35150;SDS011;55720;51.972;4.624;2023-05-08T09:34:07;26.80;;;13.32;;
35150;SDS011;55720;51.972;4.624;2023-05-08T09:36:34;31.33;;;14.13;;
35150;SDS011;55720;51.972;4.624;2023-05-08T09:39:00;37.10;;;17.48;;
35150;SDS011;55720;51.972;4.624;2023-05-08T09:41:26;35.67;;;18.58;;
35150;SDS011;55720;51.972;4.624;2023-05-08T09:44:02;38.42;;;16.20;;
35150;SDS011;55720;51.972;4.624;2023-05-08T09:46:28;40.65;;;17.95;;
35150;SDS011;55720;51.972;4.624;2023-05-08T09:48:55;39.03;;;18.95;;
35150;SDS011;55720;51.972;4.624;2023-05-08T09:51:22;46.47;;;20.10;;
35150;SDS011;55720;51.972;4.624;2023-05-08T09:53:51;40.88;;;19.75;;
35150;SDS011;55720;51.972;4.624;2023-05-08T09:56:30;46.22;;;19.40;;
35150;SDS011;55720;51.972;4.624;2023-05-08T09:59:25;48.67;;;19.75;;
35150;SDS011;55720;51.972;4.624;2023-05-08T10:01:52;44.58;;;19.95;;
35150;SDS011;55720;51.972;4.624;2023-05-08T10:04:35;36.47;;;17.23;;
35150;SDS011;55720;51.972;4.624;2023-05-08T10:07:01;39.55;;;17.90;;
35150;SDS011;55720;51.972;4.624;2023-05-08T10:09:27;38.45;;;17.42;;
35150;SDS011;55720;51.972;4.624;2023-05-08T10:11:53;36.63;;;17.20;;
35150;SDS011;55720;51.972;4.624;2023-05-08T10:14:20;36.72;;;17.83;;
35150;SDS011;55720;51.972;4.624;2023-05-08T10:16:47;37.30;;;17.27;;
35150;SDS011;55720;51.972;4.624;2023-05-08T10:19:21;34.42;;;16.52;;
35150;SDS011;55720;51.972;4.624;2023-05-08T10:21:48;38.17;;;17.50;;
35150;SDS011;55720;51.972;4.624;2023-05-08T10:24:16;31.13;;;16.33;;
35150;SDS011;55720;51.972;4.624;2023-05-08T10:26:56;31.55;;;15.75;;
35150;SDS011;55720;51.972;4.624;2023-05-08T10:29:32;30.20;;;15.18;;
35150;SDS011;55720;51.972;4.624;2023-05-08T10:32:08;32.90;;;15.20;;
35150;SDS011;55720;51.972;4.624;2023-05-08T10:34:34;33.92;;;15.77;;
35150;SDS011;55720;51.972;4.624;2023-05-08T10:37:04;37.50;;;17.25;;
35150;SDS011;55720;51.972;4.624;2023-05-08T10:39:35;34.28;;;16.35;;
35150;SDS011;55720;51.972;4.624;2023-05-08T10:42:01;30.33;;;16.77;;
35150;SDS011;55720;51.972;4.624;2023-05-08T10:44:27;30.42;;;16.70;;
35150;SDS011;55720;51.972;4.624;2023-05-08T10:47:01;27.95;;;14.85;;
35150;SDS011;55720;51.972;4.624;2023-05-08T10:49:59;28.98;;;15.60;;
35150;SDS011;55720;51.972;4.624;2023-05-08T10:52:35;31.67;;;15.60;;
35150;SDS011;55720;51.972;4.624;2023-05-08T10:55:28;29.38;;;15.18;;
35150;SDS011;55720;51.972;4.624;2023-05-08T11:03:17;29.42;;;16.52;;
35150;SDS011;55720;51.972;4.624;2023-05-08T11:05:53;28.52;;;15.60;;
35150;SDS011;55720;51.972;4.624;2023-05-08T11:08:21;26.92;;;15.68;;
35150;SDS011;55720;51.972;4.624;2023-05-08T11:11:36;26.65;;;15.40;;
35150;SDS011;55720;51.972;4.624;2023-05-08T11:13:41;25.02;;;14.80;;
35150;SDS011;55720;51.972;4.624;2023-05-08T11:19:19;25.35;;;14.93;;
35150;SDS011;55720;51.972;4.624;2023-05-08T11:24:49;27.10;;;16.13;;
35150;SDS011;55720;51.972;4.624;2023-05-08T11:27:16;23.75;;;14.88;;
35150;SDS011;55720;51.972;4.624;2023-05-08T11:29:42;24.58;;;15.88;;
35150;SDS011;55720;51.972;4.624;2023-05-08T11:32:08;26.63;;;15.40;;
35150;SDS011;55720;51.972;4.624;2023-05-08T11:37:09;22.42;;;13.95;;
35150;SDS011;55720;51.972;4.624;2023-05-08T11:39:45;23.23;;;15.07;;
35150;SDS011;55720;51.972;4.624;2023-05-08T11:44:56;24.90;;;14.68;;
35150;SDS011;55720;51.972;4.624;2023-05-08T11:50:03;22.20;;;14.05;;
35150;SDS011;55720;51.972;4.624;2023-05-08T11:52:32;18.38;;;12.65;;
35150;SDS011;55720;51.972;4.624;2023-05-08T11:55:09;23.35;;;13.45;;
35150;SDS011;55720;51.972;4.624;2023-05-08T11:57:35;21.55;;;13.43;;
35150;SDS011;55720;51.972;4.624;2023-05-08T12:00:04;22.33;;;13.38;;
35150;SDS011;55720;51.972;4.624;2023-05-08T12:02:40;22.80;;;13.57;;
35150;SDS011;55720;51.972;4.624;2023-05-08T12:05:06;21.23;;;13.25;;
35150;SDS011;55720;51.972;4.624;2023-05-08T12:07:41;26.05;;;14.15;;
35150;SDS011;55720;51.972;4.624;2023-05-08T12:10:08;23.67;;;14.55;;
35150;SDS011;55720;51.972;4.624;2023-05-08T12:12:40;25.25;;;14.48;;
35150;SDS011;55720;51.972;4.624;2023-05-08T12:15:10;27.73;;;15.45;;
35150;SDS011;55720;51.972;4.624;2023-05-08T12:17:37;22.73;;;14.32;;
35150;SDS011;55720;51.972;4.624;2023-05-08T12:20:35;21.25;;;13.35;;
35150;SDS011;55720;51.972;4.624;2023-05-08T12:22:54;21.95;;;13.50;;
35150;SDS011;55720;51.972;4.624;2023-05-08T12:25:19;19.95;;;12.50;;
35150;SDS011;55720;51.972;4.624;2023-05-08T12:27:44;21.20;;;13.88;;
35150;SDS011;55720;51.972;4.624;2023-05-08T12:30:11;17.35;;;12.43;;
35150;SDS011;55720;51.972;4.624;2023-05-08T12:32:41;23.20;;;14.18;;
35150;SDS011;55720;51.972;4.624;2023-05-08T12:35:08;19.63;;;13.00;;
35150;SDS011;55720;51.972;4.624;2023-05-08T12:37:34;20.63;;;13.95;;
35150;SDS011;55720;51.972;4.624;2023-05-08T12:40:00;19.00;;;14.13;;
35150;SDS011;55720;51.972;4.624;2023-05-08T12:42:45;23.75;;;14.43;;
35150;SDS011;55720;51.972;4.624;2023-05-08T12:45:19;24.75;;;14.68;;
35150;SDS011;55720;51.972;4.624;2023-05-08T12:47:45;23.52;;;15.05;;
35150;SDS011;55720;51.972;4.624;2023-05-08T12:50:37;21.02;;;13.95;;
35150;SDS011;55720;51.972;4.624;2023-05-08T12:53:14;26.00;;;15.80;;
35150;SDS011;55720;51.972;4.624;2023-05-08T12:55:51;22.25;;;15.05;;
35150;SDS011;55720;51.972;4.624;2023-05-08T12:58:17;25.95;;;15.80;;
35150;SDS011;55720;51.972;4.624;2023-05-08T13:00:45;29.77;;;16.27;;
35150;SDS011;55720;51.972;4.624;2023-05-08T13:03:12;34.45;;;17.67;;
35150;SDS011;55720;51.972;4.624;2023-05-08T13:05:47;31.13;;;17.05;;
35150;SDS011;55720;51.972;4.624;2023-05-08T13:08:12;38.63;;;19.05;;
35150;SDS011;55720;51.972;4.624;2023-05-08T13:10:44;39.53;;;18.98;;
35150;SDS011;55720;51.972;4.624;2023-05-08T13:13:15;47.35;;;21.38;;
35150;SDS011;55720;51.972;4.624;2023-05-08T13:15:42;45.90;;;20.42;;
35150;SDS011;55720;51.972;4.624;2023-05-08T13:18:08;57.03;;;23.65;;
35150;SDS011;55720;51.972;4.624;2023-05-08T13:20:33;56.42;;;22.88;;
35150;SDS011;55720;51.972;4.624;2023-05-08T13:22:59;53.42;;;22.40;;
35150;SDS011;55720;51.972;4.624;2023-05-08T13:25:25;62.63;;;24.27;;
35150;SDS011;55720;51.972;4.624;2023-05-08T13:27:50;71.45;;;27.13;;
35150;SDS011;55720;51.972;4.624;2023-05-08T13:30:15;71.05;;;27.00;;
35150;SDS011;55720;51.972;4.624;2023-05-08T13:32:41;77.68;;;30.05;;
35150;SDS011;55720;51.972;4.624;2023-05-08T13:35:07;88.18;;;31.83;;
35150;SDS011;55720;51.972;4.624;2023-05-08T13:37:32;93.43;;;33.70;;
35150;SDS011;55720;51.972;4.624;2023-05-08T13:39:58;96.90;;;34.28;;
35150;SDS011;55720;51.972;4.624;2023-05-08T13:42:23;105.53;;;34.60;;
35150;SDS011;55720;51.972;4.624;2023-05-08T13:44:49;107.63;;;35.60;;
35150;SDS011;55720;51.972;4.624;2023-05-08T13:47:14;101.03;;;35.63;;
35150;SDS011;55720;51.972;4.624;2023-05-08T13:49:39;116.95;;;37.53;;
35150;SDS011;55720;51.972;4.624;2023-05-08T13:52:05;112.85;;;35.67;;
35150;SDS011;55720;51.972;4.624;2023-05-08T13:54:30;105.07;;;35.58;;
35150;SDS011;55720;51.972;4.624;2023-05-08T13:56:56;106.90;;;35.72;;
35150;SDS011;55720;51.972;4.624;2023-05-08T13:59:21;114.40;;;37.65;;
35150;SDS011;55720;51.972;4.624;2023-05-08T14:01:47;114.57;;;38.17;;
35150;SDS011;55720;51.972;4.624;2023-05-08T14:04:12;114.63;;;37.58;;
35150;SDS011;55720;51.972;4.624;2023-05-08T14:06:37;108.93;;;36.60;;
35150;SDS011;55720;51.972;4.624;2023-05-08T14:09:03;105.43;;;36.13;;
35150;SDS011;55720;51.972;4.624;2023-05-08T14:11:28;109.90;;;37.33;;
35150;SDS011;55720;51.972;4.624;2023-05-08T14:13:54;102.25;;;33.95;;
35150;SDS011;55720;51.972;4.624;2023-05-08T14:16:19;101.38;;;33.25;;
35150;SDS011;55720;51.972;4.624;2023-05-08T14:18:45;96.38;;;33.92;;
35150;SDS011;55720;51.972;4.624;2023-05-08T14:21:10;94.50;;;32.88;;
35150;SDS011;55720;51.972;4.624;2023-05-08T14:23:35;90.65;;;32.10;;
35150;SDS011;55720;51.972;4.624;2023-05-08T14:26:02;88.95;;;32.13;;
35150;SDS011;55720;51.972;4.624;2023-05-08T14:28:28;88.70;;;31.55;;
35150;SDS011;55720;51.972;4.624;2023-05-08T14:30:53;86.18;;;29.80;;
35150;SDS011;55720;51.972;4.624;2023-05-08T14:33:19;78.43;;;30.27;;
35150;SDS011;55720;51.972;4.624;2023-05-08T14:35:44;87.55;;;31.40;;
35150;SDS011;55720;51.972;4.624;2023-05-08T14:38:12;79.25;;;28.27;;
35150;SDS011;55720;51.972;4.624;2023-05-08T14:40:38;80.85;;;28.55;;
35150;SDS011;55720;51.972;4.624;2023-05-08T14:43:03;76.65;;;27.60;;
35150;SDS011;55720;51.972;4.624;2023-05-08T14:45:28;72.55;;;27.63;;
35150;SDS011;55720;51.972;4.624;2023-05-08T14:47:54;60.92;;;26.15;;
35150;SDS011;55720;51.972;4.624;2023-05-08T14:50:19;62.92;;;25.65;;
35150;SDS011;55720;51.972;4.624;2023-05-08T14:52:45;66.32;;;26.00;;
35150;SDS011;55720;51.972;4.624;2023-05-08T14:55:10;58.05;;;23.55;;
35150;SDS011;55720;51.972;4.624;2023-05-08T14:57:36;55.80;;;21.70;;
35150;SDS011;55720;51.972;4.624;2023-05-08T15:00:01;55.40;;;21.85;;
35150;SDS011;55720;51.972;4.624;2023-05-08T15:02:30;50.10;;;22.02;;
35150;SDS011;55720;51.972;4.624;2023-05-08T15:04:56;48.67;;;21.08;;
35150;SDS011;55720;51.972;4.624;2023-05-08T15:07:21;49.47;;;22.17;;
35150;SDS011;55720;51.972;4.624;2023-05-08T15:09:46;51.33;;;21.10;;
35150;SDS011;55720;51.972;4.624;2023-05-08T15:12:12;51.85;;;21.40;;
35150;SDS011;55720;51.972;4.624;2023-05-08T15:14:37;52.38;;;21.38;;
35150;SDS011;55720;51.972;4.624;2023-05-08T15:17:02;48.45;;;20.35;;